One American Place, Louisiana
Current Conditions -  °F | °C
As of 10:53 AM on Wednesday 22 Oct 2014 (Local Time) from KBTR Reporting Station
Clear Clear  
Wind Chill: 23°   Ceiling: Unl
Heat Index: 23°   Visibility: 10mi
Dew Point: 12°   Wind: 8mph
Humidity: 50%   Direction: 60°ENE
Pressure: 30.12"   Gusts: NA
Location:  30.4285°N, 91.0224°W
Report Text: KBTR 221553Z 06007KT 030V090 10SM CLR 23/12 A3012 RMK AO2 SLP199 T02330122
Loading
Personal Weather Stations






























Interactive Weather Map
Tropical Storm Tracking
New forecast layout! Learn more

10-Day Weather Forecast

Advertisements
Track Severe Weather on mobile